Thunder radar more information blitzortung!


Radar de pluja more information rain snow radar


Visita la nostra xarxa de llocs de meteo:

Template documentation
and downloads

And another site



No particular awareness of the weather is required.    There are no Weather-warnings

Pagina Historial Weather Underground text

Diari Resum Setembre 25, 2017 Unitats:  Imperial    Mètric   Tant
« Previous Dia
SegĂźent Dia »
Diari Setmana Mensual Anual Personalitzada
  Maxima: Minima: Media:
Temperatura: TemperatureC °F 16.1 °F 21 °F
Punt de rosada: DewpointC °F 11.7 °F 15.1 °F
Humitat: Humidity % 56 % 70 %
Wind Speed: WindSpeedKMH mph 0.0 mph 8.2 mph
RĂ fegues de vent: WindSpeedGustKMH mph - -
Vent:- - East
Pression baro: PressurehPa in 1016.8 in -
Precipitacions: 0.0 in    
Historical Graphs
 
 
Dades de taula per Setembre 25, 2017
Temps Temperatura Punt de rosada Pression baro Vent Wind Speed RĂ fegues de vent Humitat Rainfall Rate (Hourly)
TemperatureC °F DewpointC °F PressurehPa in Calm     Humidity % HourlyPrecipMM in
00:00 18.1 °F 16.1 °F 1016.8 in Calm     88 % 0.0 in
00:03 19.1 °F 16.2 °F 1019.9 in SW 1.9 mph   83 % 0.0 in
00:10 18.0 °F 16.0 °F 1016.8 in Calm   1.6 mph 88 % 0.0 in
00:20 17.7 °F 15.7 °F 1016.8 in SSE 1.6 mph 1.6 mph 88 % 0.0 in
00:30 17.5 °F 15.5 °F 1017.8 in South 1.6 mph 3.2 mph 88 % 0.0 in
00:40 17.4 °F 15.4 °F 1016.8 in SW 1.6 mph 3.2 mph 88 % 0.0 in
00:50 17.3 °F 15.4 °F 1016.8 in Calm   3.2 mph 89 % 0.0 in
01:00 17.1 °F 15.3 °F 1016.8 in SW 1.6 mph 3.2 mph 89 % 0.0 in
01:10 17.0 °F 15.2 °F 1016.8 in Calm   3.2 mph 89 % 0.0 in
01:20 16.9 °F 15.2 °F 1016.8 in SW 1.6 mph 3.2 mph 90 % 0.0 in
01:30 16.8 °F 15.2 °F 1016.8 in Calm   3.2 mph 90 % 0.0 in
01:40 16.8 °F 15.2 °F 1017.8 in Calm     90 % 0.0 in
01:50 16.7 °F 15.2 °F 1017.8 in Calm   1.6 mph 91 % 0.0 in
02:00 16.7 °F 15.2 °F 1017.8 in Calm     91 % 0.0 in
02:10 16.5 °F 14.8 °F 1017.8 in SW 1.6 mph 3.2 mph 90 % 0.0 in
02:20 16.4 °F 14.9 °F 1017.8 in Calm   3.2 mph 91 % 0.0 in
02:30 16.5 °F 15.0 °F 1017.8 in WSW 1.6 mph 3.2 mph 91 % 0.0 in
02:40 16.6 °F 15.1 °F 1017.8 in Calm     91 % 0.0 in
02:50 16.6 °F 15.3 °F 1017.8 in Calm     92 % 0.0 in
03:00 16.4 °F 14.9 °F 1017.8 in Calm     91 % 0.0 in
03:10 16.3 °F 15.0 °F 1017.8 in Calm     92 % 0.0 in
03:20 16.1 °F 14.6 °F 1017.8 in Calm   3.2 mph 91 % 0.0 in
03:30 16.2 °F 14.9 °F 1017.8 in Calm   1.6 mph 92 % 0.0 in
03:40 16.4 °F 15.1 °F 1016.8 in Calm   1.6 mph 92 % 0.0 in
03:50 16.5 °F 15.2 °F 1016.8 in Calm     92 % 0.0 in
04:00 16.7 °F 15.6 °F 1017.8 in Calm     93 % 0.0 in
04:10 16.9 °F 15.8 °F 1017.8 in NNW 3.2 mph 3.2 mph 93 % 0.0 in
04:20 17.3 °F 16.2 °F 1017.8 in Calm     93 % 0.0 in
04:30 17.5 °F 16.3 °F 1017.8 in Calm     93 % 0.0 in
04:40 17.7 °F 16.4 °F 1017.8 in Calm     92 % 0.0 in
04:50 18.1 °F 16.6 °F 1017.8 in Calm   1.6 mph 91 % 0.0 in
05:00 18.5 °F 17.0 °F 1017.8 in SE 1.6 mph 3.2 mph 91 % 0.0 in
05:10 18.8 °F 17.1 °F 1017.8 in Calm   3.2 mph 90 % 0.0 in
05:20 19.2 °F 17.2 °F 1017.8 in NNE 1.6 mph 4.8 mph 88 % 0.0 in
05:30 19.3 °F 16.9 °F 1018.8 in NNE 4.8 mph 6.4 mph 86 % 0.0 in
10:32 20.0 °F 17.4 °F 1018.8 in NNE 5.6 mph 7.2 mph 85 % 0.0 in
10:33 20.0 °F 17.4 °F 1018.8 in NNE 5.6 mph 7.2 mph 85 % 0.0 in
10:34 19.9 °F 17.3 °F 1017.8 in ENE 11.1 mph 11.1 mph 85 % 0.0 in
10:39 19.9 °F 17.1 °F 1017.8 in WNW 3.7 mph 3.7 mph 84 % 0.0 in
10:44 20.0 °F 17.0 °F 1017.8 in NNE 1.9 mph   83 % 0.0 in
10:49 19.9 °F 16.9 °F 1018.8 in East 7.4 mph 7.4 mph 83 % 0.0 in
10:54 20.2 °F 17.0 °F 1018.8 in NE 3.7 mph 3.7 mph 82 % 0.0 in
10:59 20.7 °F 17.5 °F 1018.8 in ENE 7.4 mph 7.4 mph 82 % 0.0 in
11:04 20.8 °F 17.4 °F 1018.8 in NNE 7.4 mph 7.4 mph 81 % 0.0 in
11:09 21.2 °F 17.6 °F 1018.8 in ENE 6.1 mph 6.1 mph 80 % 0.0 in
11:14 21.4 °F 17.6 °F 1018.8 in ENE 7.4 mph 7.4 mph 79 % 0.0 in
11:19 21.3 °F 17.5 °F 1017.8 in ENE 5.6 mph 5.6 mph 79 % 0.0 in
11:24 21.6 °F 17.6 °F 1017.8 in East 5.6 mph 5.6 mph 78 % 0.0 in
11:29 21.9 °F 17.9 °F 1017.8 in East 9.3 mph 9.3 mph 78 % 0.0 in
11:34 22.0 °F 17.6 °F 1018.8 in ENE 9.3 mph 9.3 mph 76 % 0.0 in
11:39 22.0 °F 17.6 °F 1018.8 in ESE 9.3 mph 9.3 mph 76 % 0.0 in
11:44 22.0 °F 17.4 °F 1018.8 in NE 5.8 mph 5.8 mph 75 % 0.0 in
11:49 22.4 °F 17.6 °F 1018.8 in SE 9.3 mph 9.3 mph 74 % 0.0 in
11:54 23.0 °F 17.9 °F 1018.8 in SE 9.3 mph 9.3 mph 73 % 0.0 in
11:59 22.9 °F 17.6 °F 1018.8 in East 9.3 mph 9.3 mph 72 % 0.0 in
12:04 23.1 °F 17.8 °F 1018.8 in East 9.3 mph 9.3 mph 72 % 0.0 in
12:09 23.4 °F 17.8 °F 1018.8 in ESE 7.4 mph 7.4 mph 71 % 0.0 in
12:14 23.8 °F 18.0 °F 1018.8 in ESE 11.1 mph 11.1 mph 70 % 0.0 in
12:19 23.7 °F 17.9 °F 1017.8 in ENE 10.3 mph 10.3 mph 70 % 0.0 in
12:24 23.6 °F 17.3 °F 1017.8 in NE 20.4 mph 20.4 mph 68 % 0.0 in
12:29 24.0 °F 17.5 °F 1017.8 in South 9.3 mph 9.3 mph 67 % 0.0 in
12:34 24.3 °F 17.6 °F 1017.8 in East 7.4 mph 7.4 mph 66 % 0.0 in
12:39 24.2 °F 17.4 °F 1017.8 in SSW 14.8 mph 14.8 mph 66 % 0.0 in
12:44 24.1 °F 17.1 °F 1017.8 in ENE 13.0 mph 13.0 mph 65 % 0.0 in
12:49 24.0 °F 16.5 °F 1018.8 in ENE 18.5 mph 18.5 mph 63 % 0.0 in
12:54 24.2 °F 16.9 °F 1018.8 in South 9.3 mph 9.3 mph 64 % 0.0 in
12:59 24.6 °F 17.3 °F 1018.8 in ENE 5.8 mph 5.8 mph 64 % 0.0 in
13:04 24.3 °F 17.1 °F 1018.8 in ESE 9.3 mph 9.3 mph 64 % 0.0 in
13:05 24.3 °F 17.1 °F 1018.8 in ENE 9.5 mph 9.5 mph 64 % 0.0 in
13:10 24.0 °F 16.8 °F 1018.8 in ENE 11.1 mph 11.1 mph 64 % 0.0 in
13:15 24.1 °F 17.1 °F 1018.8 in ESE 7.4 mph 7.4 mph 65 % 0.0 in
13:20 24.4 °F 16.9 °F 1017.8 in South 7.4 mph 7.4 mph 63 % 0.0 in
13:25 24.6 °F 16.6 °F 1017.8 in East 13.0 mph 13.0 mph 61 % 0.0 in
13:30 24.3 °F 16.1 °F 1017.8 in ESE 14.8 mph 14.8 mph 60 % 0.0 in
13:35 24.4 °F 16.1 °F 1017.8 in ESE 18.5 mph 18.5 mph 60 % 0.0 in
13:40 24.5 °F 15.9 °F 1017.8 in ESE 14.8 mph 14.8 mph 59 % 0.0 in
13:45 24.5 °F 15.7 °F 1017.8 in ENE 16.7 mph 16.7 mph 58 % 0.0 in
13:50 24.7 °F 16.2 °F 1017.8 in ESE 8.7 mph 8.7 mph 59 % 0.0 in
13:55 24.7 °F 16.2 °F 1017.8 in ESE 7.4 mph 7.4 mph 59 % 0.0 in
14:00 24.7 °F 16.2 °F 1017.8 in ESE 11.1 mph 11.1 mph 59 % 0.0 in
14:05 24.4 °F 16.1 °F 1017.8 in ESE 9.3 mph 9.3 mph 60 % 0.0 in
14:10 25.1 °F 16.8 °F 1017.8 in NNE 14.8 mph 14.8 mph 60 % 0.0 in
14:15 25.1 °F 16.5 °F 1017.8 in East 9.3 mph 9.3 mph 59 % 0.0 in
14:20 24.7 °F 16.4 °F 1017.8 in ESE 13.0 mph 13.0 mph 60 % 0.0 in
14:25 24.4 °F 16.4 °F 1017.8 in East 5.6 mph 9.0 mph 61 % 0.0 in
14:30 24.9 °F 16.6 °F 1017.8 in ENE 14.0 mph 14.0 mph 60 % 0.0 in
14:35 24.6 °F 16.3 °F 1017.8 in ENE 11.1 mph 11.1 mph 60 % 0.0 in
14:40 24.6 °F 16.1 °F 1017.8 in ENE 8.7 mph 8.7 mph 59 % 0.0 in
14:45 24.7 °F 16.4 °F 1017.8 in East 9.3 mph 9.3 mph 60 % 0.0 in
14:50 24.8 °F 16.5 °F 1017.8 in ESE 13.0 mph 13.0 mph 60 % 0.0 in
14:55 25.0 °F 16.4 °F 1017.8 in ESE 11.1 mph 11.1 mph 59 % 0.0 in
15:00 24.6 °F 16.3 °F 1017.8 in East 15.6 mph 15.6 mph 60 % 0.0 in
15:05 24.7 °F 16.9 °F 1017.8 in ESE 11.1 mph 11.1 mph 62 % 0.0 in
15:10 24.5 °F 16.5 °F 1017.8 in East 9.3 mph 9.3 mph 61 % 0.0 in
15:15 24.3 °F 16.6 °F 1017.8 in ENE 13.0 mph 13.0 mph 62 % 0.0 in
15:20 24.4 °F 16.9 °F 1017.8 in ENE 9.7 mph 9.7 mph 63 % 0.0 in
15:25 24.2 °F 16.7 °F 1017.8 in ENE 11.1 mph 11.1 mph 63 % 0.0 in
15:30 24.1 °F 16.6 °F 1017.8 in ENE 9.3 mph 9.3 mph 63 % 0.0 in
15:35 24.1 °F 16.6 °F 1017.8 in ESE 9.7 mph 9.7 mph 63 % 0.0 in
15:40 24.0 °F 16.5 °F 1017.8 in ESE 15.6 mph 15.6 mph 63 % 0.0 in
15:45 23.9 °F 16.7 °F 1017.8 in ESE 18.5 mph 18.5 mph 64 % 0.0 in
15:50 23.9 °F 16.7 °F 1017.8 in ESE 9.3 mph 9.3 mph 64 % 0.0 in
15:55 23.9 °F 16.7 °F 1017.8 in ESE 16.1 mph 16.1 mph 64 % 0.0 in
16:00 23.8 °F 16.6 °F 1017.8 in ENE 12.6 mph 12.6 mph 64 % 0.0 in
16:05 24.0 °F 16.5 °F 1017.8 in ESE 9.3 mph 9.3 mph 63 % 0.0 in
16:10 23.9 °F 16.7 °F 1017.8 in East 9.3 mph 9.3 mph 64 % 0.0 in
16:15 24.0 °F 16.3 °F 1017.8 in East 13.0 mph 13.0 mph 62 % 0.0 in
16:20 23.8 °F 16.3 °F 1017.8 in ESE 14.8 mph 14.8 mph 63 % 0.0 in
16:23 23.8 °F 16.3 °F 1017.8 in ENE 13.0 mph 13.0 mph 63 % 0.0 in
16:28 23.8 °F 16.3 °F 1017.8 in ENE 14.8 mph 14.8 mph 63 % 0.0 in
16:33 24.0 °F 16.3 °F 1016.8 in South 7.4 mph 7.4 mph 62 % 0.0 in
16:38 24.1 °F 16.1 °F 1016.8 in SE 7.4 mph 7.4 mph 61 % 0.0 in
16:43 24.0 °F 16.0 °F 1016.8 in ESE 9.0 mph 9.0 mph 61 % 0.0 in
16:48 23.8 °F 15.8 °F 1017.8 in ESE 13.0 mph 13.0 mph 61 % 0.0 in
16:53 23.8 °F 16.1 °F 1017.8 in East 13.0 mph 13.0 mph 62 % 0.0 in
16:58 23.5 °F 15.6 °F 1017.8 in ENE 14.8 mph 14.8 mph 61 % 0.0 in
17:03 23.5 °F 15.6 °F 1017.8 in East 14.8 mph 14.8 mph 61 % 0.0 in
17:08 23.6 °F 15.6 °F 1017.8 in ENE 11.1 mph 11.1 mph 61 % 0.0 in
17:13 23.6 °F 15.6 °F 1017.8 in ESE 11.1 mph 11.1 mph 61 % 0.0 in
17:18 23.4 °F 15.4 °F 1016.8 in SSW 16.7 mph 16.7 mph 61 % 0.0 in
17:23 23.4 °F 15.7 °F 1016.8 in ENE 9.3 mph 9.3 mph 62 % 0.0 in
17:28 23.4 °F 15.4 °F 1016.8 in ESE 13.0 mph 13.0 mph 61 % 0.0 in
17:33 23.4 °F 15.4 °F 1017.8 in SE 18.5 mph 18.5 mph 61 % 0.0 in
17:38 23.5 °F 15.3 °F 1017.8 in ESE 11.1 mph 11.1 mph 60 % 0.0 in
17:43 23.7 °F 15.5 °F 1017.8 in ESE 16.1 mph 16.1 mph 60 % 0.0 in
17:48 23.5 °F 15.3 °F 1017.8 in ENE 9.3 mph 9.3 mph 60 % 0.0 in
17:53 23.6 °F 15.4 °F 1017.8 in ESE 9.3 mph 9.3 mph 60 % 0.0 in
17:58 23.3 °F 15.1 °F 1017.8 in ESE 11.1 mph 11.1 mph 60 % 0.0 in
18:03 23.3 °F 15.1 °F 1017.8 in ESE 14.0 mph 14.0 mph 60 % 0.0 in
18:08 23.1 °F 15.2 °F 1017.8 in ENE 12.6 mph 12.6 mph 61 % 0.0 in
18:13 23.0 °F 14.8 °F 1017.8 in ESE 10.3 mph 10.3 mph 60 % 0.0 in
18:18 23.0 °F 15.1 °F 1017.8 in ENE 13.0 mph 13.0 mph 61 % 0.0 in
18:23 22.9 °F 15.0 °F 1017.8 in ESE 11.1 mph 11.1 mph 61 % 0.0 in
18:28 22.9 °F 15.0 °F 1017.8 in East 11.1 mph 11.1 mph 61 % 0.0 in
18:33 22.8 °F 14.9 °F 1017.8 in ESE 9.3 mph 9.3 mph 61 % 0.0 in
18:38 22.8 °F 14.9 °F 1017.8 in SSW 9.3 mph 9.3 mph 61 % 0.0 in
18:43 22.8 °F 14.9 °F 1017.8 in ESE 13.0 mph 13.0 mph 61 % 0.0 in
18:48 22.7 °F 15.1 °F 1018.8 in SE 9.3 mph 9.3 mph 62 % 0.0 in
18:53 22.5 °F 14.8 °F 1018.8 in ESE 13.0 mph 13.0 mph 62 % 0.0 in
18:58 22.3 °F 14.9 °F 1018.8 in ESE 12.2 mph 12.2 mph 63 % 0.0 in
19:03 22.2 °F 14.8 °F 1017.8 in SE 12.2 mph 12.2 mph 63 % 0.0 in
19:08 22.1 °F 14.9 °F 1017.8 in ESE 9.3 mph 9.3 mph 64 % 0.0 in
19:13 22.1 °F 14.9 °F 1017.8 in SSE 13.0 mph 13.0 mph 64 % 0.0 in
19:18 22.1 °F 14.9 °F 1017.8 in ENE 10.0 mph 10.0 mph 64 % 0.0 in
19:23 21.9 °F 15.3 °F 1017.8 in ENE 9.3 mph 9.3 mph 66 % 0.0 in
19:28 21.9 °F 15.3 °F 1017.8 in ESE 5.6 mph 5.6 mph 66 % 0.0 in
19:33 21.8 °F 15.2 °F 1018.8 in ESE 14.5 mph 14.5 mph 66 % 0.0 in
19:38 21.7 °F 15.1 °F 1018.8 in East 11.1 mph 11.1 mph 66 % 0.0 in
19:43 21.6 °F 14.5 °F 1018.8 in ESE 11.1 mph 11.1 mph 64 % 0.0 in
19:48 21.5 °F 14.2 °F 1019.9 in NE 11.1 mph 11.1 mph 63 % 0.0 in
19:53 21.4 °F 14.1 °F 1019.9 in ENE 7.4 mph 7.4 mph 63 % 0.0 in
19:58 21.3 °F 13.9 °F 1019.9 in NNE 5.0 mph 5.0 mph 63 % 0.0 in
20:03 21.2 °F 13.9 °F 1019.9 in ENE 9.3 mph 9.3 mph 63 % 0.0 in
20:08 21.1 °F 13.6 °F 1019.9 in North 9.7 mph 9.7 mph 62 % 0.0 in
20:13 21.1 °F 13.3 °F 1019.9 in NNW 14.0 mph 14.0 mph 61 % 0.0 in
20:18 21.1 °F 12.8 °F 1019.9 in North 16.7 mph 16.7 mph 59 % 0.0 in
20:23 21.1 °F 12.5 °F 1019.9 in NNE 13.0 mph 13.0 mph 58 % 0.0 in
20:28 21.1 °F 12.5 °F 1019.9 in ENE 13.7 mph 13.7 mph 58 % 0.0 in
20:33 21.0 °F 12.7 °F 1019.9 in NNE 12.6 mph 12.6 mph 59 % 0.0 in
20:38 20.9 °F 12.1 °F 1019.9 in East 9.3 mph 9.3 mph 57 % 0.0 in
20:43 20.9 °F 12.1 °F 1019.9 in ENE 9.3 mph 9.3 mph 57 % 0.0 in
20:48 20.9 °F 11.8 °F 1019.9 in ESE 16.7 mph 16.7 mph 56 % 0.0 in
20:53 20.6 °F 11.8 °F 1019.9 in NNE 13.0 mph 13.0 mph 57 % 0.0 in
20:58 20.2 °F 11.9 °F 1019.9 in NNW 11.1 mph 11.1 mph 59 % 0.0 in
21:03 19.9 °F 12.2 °F 1019.9 in NNE 14.8 mph 14.8 mph 61 % 0.0 in
21:08 19.9 °F 12.2 °F 1019.9 in ENE 7.4 mph 7.4 mph 61 % 0.0 in
21:13 19.7 °F 12.2 °F 1019.9 in NNE 9.3 mph 9.3 mph 62 % 0.0 in
21:18 19.5 °F 12.3 °F 1020.9 in ENE 9.3 mph 9.3 mph 63 % 0.0 in
21:23 19.3 °F 12.1 °F 1020.9 in ENE 5.0 mph 5.0 mph 63 % 0.0 in
21:28 19.2 °F 12.0 °F 1020.9 in East 5.6 mph 5.6 mph 63 % 0.0 in
21:33 19.2 °F 12.0 °F 1020.9 in ENE 7.4 mph 7.4 mph 63 % 0.0 in
21:38 19.1 °F 11.7 °F 1020.9 in ENE 14.8 mph 14.8 mph 62 % 0.0 in
21:43 19.0 °F 11.8 °F 1020.9 in NE 11.1 mph 11.1 mph 63 % 0.0 in
21:48 19.0 °F 11.8 °F 1021.9 in NE 5.6 mph 5.6 mph 63 % 0.0 in
21:53 18.9 °F 12.2 °F 1021.9 in NNE 1.9 mph 1.9 mph 65 % 0.0 in
21:58 18.8 °F 12.1 °F 1021.9 in ENE 1.9 mph 1.9 mph 65 % 0.0 in
22:03 18.7 °F 12.2 °F 1021.9 in North 4.7 mph 4.7 mph 66 % 0.0 in
22:08 18.3 °F 12.3 °F 1021.9 in North 2.3 mph 2.3 mph 68 % 0.0 in
22:13 18.1 °F 12.3 °F 1021.9 in NNE 6.9 mph 6.9 mph 69 % 0.0 in
22:18 17.9 °F 12.3 °F 1021.9 in NNE 5.6 mph 5.6 mph 70 % 0.0 in
22:23 17.8 °F 12.4 °F 1021.9 in NE 5.6 mph 5.6 mph 71 % 0.0 in
22:28 17.7 °F 12.6 °F 1021.9 in NNE 4.7 mph 4.7 mph 72 % 0.0 in
22:33 17.6 °F 12.5 °F 1021.9 in NNE 3.7 mph 3.7 mph 72 % 0.0 in
22:38 17.5 °F 12.4 °F 1021.9 in ENE 5.6 mph 5.6 mph 72 % 0.0 in
22:43 17.3 °F 12.2 °F 1021.9 in NNE 9.3 mph 9.3 mph 72 % 0.0 in
22:48 17.2 °F 12.3 °F 1021.9 in ENE 6.1 mph 6.1 mph 73 % 0.0 in
22:53 17.2 °F 12.3 °F 1021.9 in NNE 9.3 mph 9.3 mph 73 % 0.0 in
22:58 17.1 °F 12.2 °F 1021.9 in North 7.4 mph 7.4 mph 73 % 0.0 in
23:03 17.1 °F 12.2 °F 1021.9 in North 5.8 mph 5.8 mph 73 % 0.0 in
23:08 17.1 °F 12.2 °F 1021.9 in NNE 7.4 mph 7.4 mph 73 % 0.0 in
23:13 17.1 °F 12.4 °F 1021.9 in NE 6.4 mph 6.4 mph 74 % 0.0 in
23:18 17.0 °F 12.3 °F 1021.9 in ENE 3.7 mph 3.7 mph 74 % 0.0 in
23:23 17.0 °F 12.3 °F 1021.9 in NNE 5.6 mph 5.6 mph 74 % 0.0 in
23:28 17.0 °F 12.3 °F 1021.9 in NNE 6.1 mph 6.1 mph 74 % 0.0 in
23:29 17.0 °F 12.3 °F 1021.9 in North 9.3 mph 9.3 mph 74 % 0.0 in
23:34 16.9 °F 12.7 °F 1021.9 in ENE 5.6 mph 5.6 mph 76 % 0.0 in
23:39 16.9 °F 12.7 °F 1021.9 in ENE 5.6 mph 5.6 mph 76 % 0.0 in
23:44 16.8 °F 12.6 °F 1021.9 in NE 3.7 mph 3.7 mph 76 % 0.0 in
23:49 16.8 °F 12.6 °F 1021.9 in NE 1.9 mph   76 % 0.0 in
23:54 16.7 °F 12.4 °F 1021.9 in Calm     76 % 0.0 in
23:59 16.6 °F 12.3 °F 1021.9 in Calm     76 % 0.0 in
Meteo Sesrovires
Elogis d' Weather Underground - 1.5 mb

Guio original per  Jim McMurry - jmcmurry@mwt.net Adaptat per a la plantilla per  Wim van der Kuil - Leuven-Template.eu

Trobareu la nostra informacio del temps tambe a:

Weather Underground

AWEKAS